createdAt,value
2024-02-05T00:00:46.399Z,100.00
2024-02-05T00:03:14.980Z,100.00
2024-02-05T00:05:43.564Z,100.00
2024-02-05T00:08:12.022Z,100.00
2024-02-05T00:10:41.674Z,100.00
2024-02-05T00:13:10.093Z,100.00
2024-02-05T00:15:38.242Z,100.00
2024-02-05T00:18:07.100Z,100.00
2024-02-05T00:20:36.050Z,100.00
2024-02-05T00:23:04.629Z,100.00
2024-02-05T00:25:33.480Z,100.00
2024-02-05T00:28:02.855Z,100.00
2024-02-05T00:30:31.065Z,100.00
2024-02-05T00:32:59.144Z,100.00
2024-02-05T00:35:27.474Z,100.00
2024-02-05T00:37:56.073Z,100.00
2024-02-05T00:40:24.257Z,100.00
2024-02-05T00:42:52.370Z,100.00
2024-02-05T00:45:22.374Z,100.00
2024-02-05T00:47:51.599Z,100.00
2024-02-05T00:50:20.352Z,100.00
2024-02-05T00:52:48.327Z,100.00
2024-02-05T00:55:16.713Z,100.00
2024-02-05T00:57:45.482Z,100.00
2024-02-05T01:00:15.600Z,100.00
2024-02-05T01:02:45.434Z,100.00
2024-02-05T01:05:13.723Z,100.00
2024-02-05T01:07:43.310Z,100.00
2024-02-05T01:10:12.485Z,100.00
2024-02-05T01:12:40.822Z,100.00
2024-02-05T01:15:09.712Z,100.00
2024-02-05T01:17:39.098Z,100.00
2024-02-05T01:20:12.038Z,100.00
2024-02-05T01:22:40.881Z,100.00
2024-02-05T01:25:09.979Z,100.00
2024-02-05T01:27:38.340Z,100.00
2024-02-05T01:30:07.090Z,100.00
2024-02-05T01:32:35.488Z,100.00
2024-02-05T01:35:04.965Z,100.00
2024-02-05T01:37:34.273Z,100.00
2024-02-05T01:40:02.243Z,100.00
2024-02-05T01:42:30.521Z,100.00
2024-02-05T01:44:58.670Z,100.00
2024-02-05T01:47:27.067Z,100.00
2024-02-05T01:49:55.138Z,100.00
2024-02-05T01:52:23.175Z,100.00
2024-02-05T01:54:53.417Z,100.00
2024-02-05T01:57:21.570Z,100.00
2024-02-05T01:59:49.554Z,100.00
2024-02-05T02:02:17.931Z,100.00
2024-02-05T02:04:45.872Z,100.00
2024-02-05T02:07:16.069Z,100.00
2024-02-05T02:09:45.420Z,100.00
2024-02-05T02:12:14.897Z,100.00
2024-02-05T02:14:42.798Z,100.00
2024-02-05T02:17:11.213Z,100.00
2024-02-05T02:19:44.975Z,100.00
2024-02-05T02:22:21.379Z,100.00
2024-02-05T02:24:51.155Z,100.00
2024-02-05T02:27:19.024Z,100.00
2024-02-05T02:29:47.609Z,100.00
2024-02-05T02:32:21.813Z,100.00
2024-02-05T02:34:52.707Z,100.00
2024-02-05T02:37:24.298Z,100.00
2024-02-05T02:39:58.133Z,100.00
2024-02-05T02:42:27.501Z,100.00
2024-02-05T02:44:56.992Z,100.00
2024-02-05T02:47:25.421Z,100.00
2024-02-05T02:49:53.392Z,100.00
2024-02-05T02:52:21.380Z,100.00
2024-02-05T02:54:49.435Z,100.00
2024-02-05T02:57:18.871Z,100.00
2024-02-05T02:59:46.728Z,100.00
2024-02-05T03:02:14.598Z,100.00
2024-02-05T03:04:42.397Z,100.00
2024-02-05T03:07:10.364Z,100.00
2024-02-05T03:09:38.316Z,100.00
2024-02-05T03:12:06.804Z,100.00
2024-02-05T03:14:36.607Z,100.00
2024-02-05T03:17:05.370Z,100.00
2024-02-05T03:19:34.831Z,100.00
2024-02-05T03:22:03.047Z,100.00
2024-02-05T03:24:31.128Z,100.00
2024-02-05T03:26:59.161Z,100.00
2024-02-05T03:29:27.118Z,100.00
2024-02-05T03:31:56.660Z,100.00
2024-02-05T03:34:24.733Z,100.00
2024-02-05T03:36:53.001Z,100.00
2024-02-05T03:39:20.904Z,100.00
2024-02-05T03:41:48.761Z,100.00
2024-02-05T03:44:16.725Z,100.00
2024-02-05T03:46:44.711Z,100.00
2024-02-05T03:49:14.116Z,100.00
2024-02-05T03:51:42.058Z,100.00
2024-02-05T03:54:10.047Z,100.00
2024-02-05T03:56:40.215Z,100.00
2024-02-05T03:59:08.827Z,100.00
2024-02-05T04:01:36.755Z,100.00
2024-02-05T04:04:05.360Z,100.00
2024-02-05T04:06:35.763Z,100.00
2024-02-05T04:09:03.851Z,100.00
2024-02-05T04:11:31.845Z,100.00
2024-02-05T04:13:59.737Z,100.00
2024-02-05T04:16:28.207Z,100.00
2024-02-05T04:18:56.444Z,100.00
2024-02-05T04:21:25.370Z,100.00
2024-02-05T04:23:54.877Z,100.00
2024-02-05T04:26:23.502Z,100.00
2024-02-05T04:28:51.421Z,100.00
2024-02-05T04:31:20.127Z,100.00
2024-02-05T04:33:49.924Z,100.00
2024-02-05T04:36:18.017Z,100.00
2024-02-05T04:38:46.194Z,100.00
2024-02-05T04:41:15.743Z,100.00
2024-02-05T04:43:43.602Z,100.00
2024-02-05T04:46:13.141Z,100.00
2024-02-05T04:48:43.400Z,100.00
2024-02-05T04:51:13.266Z,100.00
2024-02-05T04:53:41.776Z,100.00
2024-02-05T04:56:09.908Z,100.00
2024-02-05T04:58:39.641Z,100.00
2024-02-05T05:01:11.417Z,100.00
2024-02-05T05:03:40.966Z,100.00
2024-02-05T05:06:08.965Z,100.00
2024-02-05T05:08:37.030Z,100.00
2024-02-05T05:11:05.288Z,100.00
2024-02-05T05:13:33.296Z,100.00
2024-02-05T05:16:03.896Z,100.00
2024-02-05T05:18:32.178Z,100.00
2024-02-05T05:21:00.118Z,100.00
2024-02-05T05:23:27.921Z,100.00
2024-02-05T05:25:55.884Z,100.00
2024-02-05T05:28:24.180Z,100.00
2024-02-05T05:30:52.166Z,100.00
2024-02-05T05:33:21.693Z,100.00
2024-02-05T05:35:49.763Z,100.00
2024-02-05T05:38:18.038Z,100.00
2024-02-05T05:40:45.933Z,100.00
2024-02-05T05:43:14.154Z,100.00
2024-02-05T05:45:42.279Z,100.00
2024-02-05T05:48:11.378Z,100.00
2024-02-05T05:50:41.102Z,100.00
2024-02-05T05:53:09.500Z,100.00
2024-02-05T05:55:37.451Z,100.00
2024-02-05T05:58:05.841Z,100.00
2024-02-05T06:00:33.831Z,100.00
2024-02-05T06:03:02.249Z,100.00
2024-02-05T06:05:30.295Z,100.00
2024-02-05T06:08:00.018Z,100.00
2024-02-05T06:10:28.081Z,100.00
2024-02-05T06:12:56.605Z,100.00
2024-02-05T06:15:24.590Z,100.00
2024-02-05T06:17:52.814Z,100.00
2024-02-05T06:20:20.962Z,100.00
2024-02-05T06:22:49.084Z,100.00
2024-02-05T06:25:18.528Z,100.00
2024-02-05T06:27:46.502Z,100.00
2024-02-05T06:30:15.389Z,100.00
2024-02-05T06:32:43.627Z,100.00
2024-02-05T06:35:11.288Z,100.00
2024-02-05T06:37:39.375Z,100.00
2024-02-05T06:40:09.492Z,100.00
2024-02-05T06:42:39.268Z,100.00
2024-02-05T06:45:09.155Z,100.00
2024-02-05T06:47:37.364Z,100.00
2024-02-05T06:50:06.373Z,100.00
2024-02-05T06:52:34.729Z,100.00
2024-02-05T06:55:02.773Z,100.00
2024-02-05T06:57:30.792Z,100.00
2024-02-05T07:00:00.383Z,100.00
2024-02-05T07:02:28.244Z,100.00
2024-02-05T07:04:57.499Z,100.00
2024-02-05T07:07:28.927Z,100.00
2024-02-05T07:09:57.741Z,100.00
2024-02-05T07:12:25.924Z,100.00
2024-02-05T07:14:54.046Z,100.00
2024-02-05T07:17:32.458Z,100.00
2024-02-05T07:20:02.535Z,100.00
2024-02-05T07:22:33.226Z,100.00
2024-02-05T07:25:01.247Z,100.00
2024-02-05T07:27:29.597Z,100.00
2024-02-05T07:29:57.489Z,99.96
2024-02-05T07:32:26.718Z,100.00
2024-02-05T07:34:55.212Z,100.00
2024-02-05T07:37:24.222Z,100.00
2024-02-05T07:39:51.525Z,100.00
2024-02-05T07:42:19.557Z,100.00
2024-02-05T07:44:47.589Z,99.62
2024-02-05T07:47:16.252Z,99.15
2024-02-05T07:49:45.560Z,99.15
2024-02-05T07:52:13.985Z,99.54
2024-02-05T07:54:42.127Z,98.51
2024-02-05T07:57:10.378Z,97.61
2024-02-05T07:59:38.239Z,98.11
2024-02-05T08:02:06.504Z,97.73
2024-02-05T08:04:34.618Z,97.18
2024-02-05T08:07:05.954Z,96.93
2024-02-05T08:09:36.217Z,97.75
2024-02-05T08:12:05.252Z,97.68
2024-02-05T08:14:33.200Z,97.71
2024-02-05T08:17:01.094Z,97.67
2024-02-05T08:19:29.127Z,97.39
2024-02-05T08:21:57.070Z,98.13
2024-02-05T08:24:27.456Z,97.02
2024-02-05T08:26:55.505Z,96.19
2024-02-05T08:29:24.265Z,96.43
2024-02-05T08:31:53.587Z,95.98
2024-02-05T08:34:21.695Z,95.92
2024-02-05T08:36:50.683Z,95.49
2024-02-05T08:39:18.675Z,95.13
2024-02-05T08:41:48.205Z,96.04
2024-02-05T08:44:16.243Z,96.10
2024-02-05T08:46:44.320Z,95.82
2024-02-05T08:49:13.551Z,96.28
2024-02-05T08:51:41.666Z,96.66
2024-02-05T08:54:10.464Z,96.75
2024-02-05T08:56:38.827Z,96.42
2024-02-05T08:59:08.763Z,96.46
2024-02-05T09:01:36.995Z,95.91
2024-02-05T09:04:05.249Z,97.01
2024-02-05T09:06:33.835Z,96.99
2024-02-05T09:09:01.689Z,97.10
2024-02-05T09:11:34.769Z,96.68
2024-02-05T09:14:04.213Z,96.23
2024-02-05T09:16:33.601Z,95.77
2024-02-05T09:19:01.589Z,95.94
2024-02-05T09:21:29.957Z,95.98
2024-02-05T09:23:57.904Z,96.01
2024-02-05T09:26:25.918Z,96.32
2024-02-05T09:28:54.035Z,96.27
2024-02-05T09:31:22.059Z,95.53
2024-02-05T09:33:51.524Z,95.23
2024-02-05T09:36:19.969Z,95.64
2024-02-05T09:38:47.891Z,95.34
2024-02-05T09:41:22.328Z,95.92
2024-02-05T09:43:51.520Z,95.35
2024-02-05T09:46:22.461Z,96.26
2024-02-05T09:48:53.638Z,96.14
2024-02-05T09:51:24.021Z,96.06
2024-02-05T09:53:58.279Z,96.80
2024-02-05T09:56:35.899Z,96.92
2024-02-05T09:59:04.440Z,96.45
2024-02-05T10:01:34.541Z,96.47
2024-02-05T10:04:05.072Z,97.21
2024-02-05T10:06:35.040Z,96.31
2024-02-05T10:09:07.550Z,96.53
2024-02-05T10:11:37.945Z,95.96
2024-02-05T10:14:06.464Z,95.14
2024-02-05T10:16:36.363Z,95.27
2024-02-05T10:19:06.596Z,94.91
2024-02-05T10:21:35.039Z,94.54
2024-02-05T10:24:03.464Z,94.88
2024-02-05T10:26:32.926Z,93.13
2024-02-05T10:29:08.819Z,93.58
2024-02-05T10:31:48.774Z,93.75
2024-02-05T10:34:19.685Z,93.26
2024-02-05T10:36:47.977Z,92.93
2024-02-05T10:39:24.038Z,92.79
2024-02-05T10:41:53.908Z,93.63
2024-02-05T10:44:32.887Z,94.50
2024-02-05T10:47:07.797Z,92.43
2024-02-05T10:49:37.971Z,93.02
2024-02-05T10:52:09.822Z,93.19
2024-02-05T10:54:41.219Z,92.50
2024-02-05T10:57:10.497Z,91.88
2024-02-05T10:59:38.716Z,91.97
2024-02-05T11:02:13.656Z,92.71
2024-02-05T11:04:43.244Z,91.60
2024-02-05T11:07:16.132Z,91.93
2024-02-05T11:09:47.356Z,90.63
2024-02-05T11:12:17.812Z,91.27
2024-02-05T11:14:48.039Z,90.75
2024-02-05T11:17:19.488Z,90.56
2024-02-05T11:19:51.505Z,90.81
2024-02-05T11:22:22.303Z,88.88
2024-02-05T11:24:50.408Z,90.08
2024-02-05T11:27:19.234Z,89.73
2024-02-05T11:29:47.242Z,90.05
2024-02-05T11:32:15.848Z,89.17
2024-02-05T11:34:44.923Z,88.92
2024-02-05T11:37:20.584Z,88.17
2024-02-05T11:39:49.020Z,89.05
2024-02-05T11:42:20.067Z,89.28
2024-02-05T11:44:48.776Z,88.96
2024-02-05T11:47:17.017Z,89.36
2024-02-05T11:49:46.341Z,88.87
2024-02-05T11:52:16.268Z,88.99
2024-02-05T11:54:47.104Z,87.67
2024-02-05T11:57:15.281Z,87.88
2024-02-05T11:59:43.577Z,88.74
2024-02-05T12:02:11.894Z,88.83
2024-02-05T12:04:40.896Z,88.70
2024-02-05T12:07:09.818Z,88.57
2024-02-05T12:09:38.522Z,88.00
2024-02-05T12:12:08.771Z,87.86
2024-02-05T12:14:37.729Z,88.23
2024-02-05T12:17:12.821Z,87.87
2024-02-05T12:19:40.887Z,88.11
2024-02-05T12:22:09.189Z,88.67
2024-02-05T12:24:37.390Z,88.63
2024-02-05T12:27:06.109Z,88.83
2024-02-05T12:29:35.693Z,87.02
2024-02-05T12:32:06.090Z,85.93
2024-02-05T12:34:34.354Z,86.55
2024-02-05T12:37:02.897Z,87.77
2024-02-05T12:39:31.032Z,87.97
2024-02-05T12:42:00.305Z,87.31
2024-02-05T12:44:37.798Z,86.74
2024-02-05T12:47:11.499Z,86.95
2024-02-05T12:49:40.820Z,87.66
2024-02-05T12:52:08.826Z,87.25
2024-02-05T12:54:37.523Z,87.88
2024-02-05T12:57:06.184Z,87.15
2024-02-05T12:59:34.134Z,87.81
2024-02-05T13:02:02.438Z,88.75
2024-02-05T13:04:31.978Z,89.35
2024-02-05T13:07:06.249Z,88.14
2024-02-05T13:09:37.305Z,86.86
2024-02-05T13:12:06.204Z,87.12
2024-02-05T13:14:34.152Z,88.18
2024-02-05T13:17:06.513Z,86.56
2024-02-05T13:19:37.142Z,86.08
2024-02-05T13:22:06.985Z,87.35
2024-02-05T13:24:35.326Z,87.43
2024-02-05T13:27:03.519Z,87.12
2024-02-05T13:29:31.848Z,87.40
2024-02-05T13:31:59.843Z,87.91
2024-02-05T13:34:30.666Z,88.98
2024-02-05T13:37:00.848Z,87.21
2024-02-05T13:39:28.904Z,86.42
2024-02-05T13:41:58.025Z,86.14
2024-02-05T13:44:26.118Z,86.22
2024-02-05T13:46:54.889Z,85.83
2024-02-05T13:49:23.209Z,86.66
2024-02-05T13:51:51.997Z,87.03
2024-02-05T13:54:21.732Z,86.77
2024-02-05T13:56:50.308Z,87.01
2024-02-05T13:59:18.988Z,87.05
2024-02-05T14:01:47.310Z,87.20
2024-02-05T14:04:15.848Z,86.76
2024-02-05T14:06:44.024Z,87.58
2024-02-05T14:09:12.844Z,88.32
2024-02-05T14:11:42.197Z,87.81
2024-02-05T14:14:10.103Z,88.36
2024-02-05T14:16:38.304Z,87.78
2024-02-05T14:19:06.469Z,88.48
2024-02-05T14:21:35.448Z,88.05
2024-02-05T14:24:05.070Z,87.80
2024-02-05T14:26:32.994Z,88.58
2024-02-05T14:29:02.226Z,88.67
2024-02-05T14:31:30.452Z,88.77
2024-02-05T14:33:58.593Z,88.06
2024-02-05T14:36:26.606Z,88.41
2024-02-05T14:38:55.131Z,88.88
2024-02-05T14:41:23.220Z,89.12
2024-02-05T14:43:51.180Z,88.29
2024-02-05T14:46:20.361Z,88.36
2024-02-05T14:48:48.577Z,89.30
2024-02-05T14:51:16.746Z,89.08
2024-02-05T14:53:44.748Z,88.55
2024-02-05T14:56:12.661Z,89.52
2024-02-05T14:58:40.586Z,88.68
2024-02-05T15:01:09.040Z,88.86
2024-02-05T15:03:38.498Z,89.00
2024-02-05T15:06:07.082Z,88.93
2024-02-05T15:08:35.610Z,89.18
2024-02-05T15:11:04.694Z,89.09
2024-02-05T15:13:32.729Z,88.50
2024-02-05T15:16:00.817Z,88.15
2024-02-05T15:18:29.213Z,88.95
2024-02-05T15:20:58.627Z,88.25
2024-02-05T15:23:26.682Z,88.17
2024-02-05T15:25:54.669Z,88.74
2024-02-05T15:28:22.750Z,89.28
2024-02-05T15:30:50.628Z,89.34
2024-02-05T15:33:18.759Z,88.25
2024-02-05T15:35:47.853Z,88.63
2024-02-05T15:38:17.261Z,88.70
2024-02-05T15:40:45.574Z,87.67
2024-02-05T15:43:14.093Z,88.68
2024-02-05T15:45:42.185Z,88.40
2024-02-05T15:48:10.212Z,87.85
2024-02-05T15:50:38.406Z,87.76
2024-02-05T15:53:06.726Z,87.46
2024-02-05T15:55:36.269Z,88.46
2024-02-05T15:58:08.183Z,88.42
2024-02-05T16:00:36.460Z,88.64
2024-02-05T16:03:04.580Z,89.41
2024-02-05T16:05:33.276Z,88.64
2024-02-05T16:08:01.929Z,89.83
2024-02-05T16:10:31.963Z,89.35
2024-02-05T16:13:01.418Z,89.47
2024-02-05T16:15:29.393Z,88.94
2024-02-05T16:17:57.375Z,88.82
2024-02-05T16:20:26.839Z,88.20
2024-02-05T16:22:55.009Z,88.81
2024-02-05T16:25:26.454Z,89.51
2024-02-05T16:27:55.818Z,89.65
2024-02-05T16:30:26.884Z,89.15
2024-02-05T16:32:54.849Z,88.56
2024-02-05T16:35:22.919Z,88.98
2024-02-05T16:37:51.551Z,89.10
2024-02-05T16:40:20.185Z,89.28
2024-02-05T16:42:48.419Z,88.77
2024-02-05T16:45:16.585Z,89.03
2024-02-05T16:47:46.998Z,88.82
2024-02-05T16:50:15.954Z,88.48
2024-02-05T16:52:44.867Z,87.69
2024-02-05T16:55:13.098Z,88.57
2024-02-05T16:57:41.189Z,89.55
2024-02-05T17:00:12.423Z,89.51
2024-02-05T17:02:40.431Z,88.79
2024-02-05T17:05:10.368Z,89.42
2024-02-05T17:07:38.533Z,89.40
2024-02-05T17:10:08.924Z,89.05
2024-02-05T17:12:37.573Z,89.47
2024-02-05T17:15:06.197Z,90.05
2024-02-05T17:17:38.118Z,89.70
2024-02-05T17:20:07.797Z,89.42
2024-02-05T17:22:37.453Z,90.31
2024-02-05T17:25:06.713Z,89.48
2024-02-05T17:27:34.723Z,90.42
2024-02-05T17:30:03.054Z,89.90
2024-02-05T17:32:32.393Z,88.93
2024-02-05T17:35:01.289Z,89.38
2024-02-05T17:37:29.516Z,89.92
2024-02-05T17:39:59.078Z,90.14
2024-02-05T17:42:28.909Z,89.93
2024-02-05T17:44:57.166Z,89.66
2024-02-05T17:47:25.159Z,90.47
2024-02-05T17:49:53.473Z,89.97
2024-02-05T17:52:21.611Z,89.20
2024-02-05T17:54:49.655Z,89.14
2024-02-05T17:57:19.180Z,89.39
2024-02-05T17:59:47.204Z,89.56
2024-02-05T18:02:16.402Z,89.95
2024-02-05T18:04:44.604Z,89.01
2024-02-05T18:07:12.957Z,89.30
2024-02-05T18:09:41.398Z,89.61
2024-02-05T18:12:09.881Z,89.01
2024-02-05T18:14:39.283Z,89.71
2024-02-05T18:17:07.892Z,89.95
2024-02-05T18:19:37.282Z,89.47
2024-02-05T18:22:05.820Z,89.31
2024-02-05T18:24:42.019Z,89.57
2024-02-05T18:27:18.140Z,90.15
2024-02-05T18:29:47.703Z,89.43
2024-02-05T18:32:16.112Z,89.49
2024-02-05T18:34:47.102Z,89.40
2024-02-05T18:37:16.130Z,89.16
2024-02-05T18:39:44.985Z,89.65
2024-02-05T18:42:13.105Z,89.59
2024-02-05T18:44:41.519Z,91.30
2024-02-05T18:47:11.114Z,89.64
2024-02-05T18:49:39.323Z,89.84
2024-02-05T18:52:10.104Z,89.27
2024-02-05T18:54:38.637Z,89.95
2024-02-05T18:57:08.027Z,89.32
2024-02-05T18:59:36.511Z,89.76
2024-02-05T19:02:05.402Z,89.75
2024-02-05T19:04:35.028Z,88.92
2024-02-05T19:07:04.898Z,90.17
2024-02-05T19:09:34.474Z,89.81
2024-02-05T19:12:03.224Z,89.93
2024-02-05T19:14:32.232Z,90.20
2024-02-05T19:17:00.529Z,89.69
2024-02-05T19:19:29.715Z,90.10
2024-02-05T19:21:59.940Z,89.67
2024-02-05T19:24:28.636Z,89.82
2024-02-05T19:27:00.381Z,89.67
2024-02-05T19:29:29.812Z,89.92
2024-02-05T19:31:58.108Z,90.76
2024-02-05T19:34:27.107Z,90.76
2024-02-05T19:36:55.616Z,91.10
2024-02-05T19:39:25.418Z,90.13
2024-02-05T19:41:53.848Z,90.26
2024-02-05T19:44:23.066Z,89.91
2024-02-05T19:46:51.468Z,90.47
2024-02-05T19:49:20.278Z,91.24
2024-02-05T19:51:49.001Z,90.98
2024-02-05T19:54:17.684Z,91.67
2024-02-05T19:56:47.909Z,90.91
2024-02-05T19:59:17.086Z,90.41
2024-02-05T20:01:46.175Z,90.95
2024-02-05T20:04:14.456Z,91.85
2024-02-05T20:06:43.640Z,90.98
2024-02-05T20:09:12.362Z,92.04
2024-02-05T20:11:41.779Z,92.10
2024-02-05T20:14:12.291Z,91.70
2024-02-05T20:16:40.812Z,92.36
2024-02-05T20:19:09.311Z,92.32
2024-02-05T20:21:37.539Z,92.71
2024-02-05T20:24:06.457Z,92.49
2024-02-05T20:26:35.305Z,92.99
2024-02-05T20:29:04.424Z,93.14
2024-02-05T20:31:35.573Z,93.69
2024-02-05T20:34:04.198Z,93.62
2024-02-05T20:36:32.398Z,93.78
2024-02-05T20:39:00.877Z,94.29
2024-02-05T20:41:29.597Z,93.66
2024-02-05T20:43:57.859Z,94.16
2024-02-05T20:46:26.354Z,93.97
2024-02-05T20:48:56.066Z,94.59
2024-02-05T20:51:24.434Z,95.11
2024-02-05T20:53:52.826Z,95.57
2024-02-05T20:56:24.155Z,95.35
2024-02-05T20:58:52.392Z,94.68
2024-02-05T21:01:21.234Z,94.80
2024-02-05T21:03:49.410Z,95.28
2024-02-05T21:06:19.156Z,95.39
2024-02-05T21:08:47.843Z,94.65
2024-02-05T21:11:16.397Z,93.95
2024-02-05T21:13:44.914Z,95.20
2024-02-05T21:16:21.011Z,95.15
2024-02-05T21:18:51.333Z,95.55
2024-02-05T21:21:21.126Z,95.39
2024-02-05T21:23:49.223Z,94.91
2024-02-05T21:26:17.344Z,95.15
2024-02-05T21:28:46.589Z,96.31
2024-02-05T21:31:14.689Z,95.91
2024-02-05T21:33:43.480Z,96.65
2024-02-05T21:36:11.652Z,96.83
2024-02-05T21:38:41.227Z,97.46
2024-02-05T21:41:09.303Z,97.82
2024-02-05T21:43:37.263Z,98.12
2024-02-05T21:46:05.602Z,99.21
2024-02-05T21:48:33.676Z,99.05
2024-02-05T21:51:01.877Z,99.68
2024-02-05T21:53:30.052Z,100.00
2024-02-05T21:55:59.439Z,100.00
2024-02-05T21:58:27.444Z,100.00
2024-02-05T22:00:55.547Z,100.00
2024-02-05T22:03:23.562Z,100.00
2024-02-05T22:05:51.645Z,100.00
2024-02-05T22:08:19.637Z,100.00
2024-02-05T22:10:47.704Z,100.00
2024-02-05T22:13:17.801Z,100.00
2024-02-05T22:15:45.875Z,100.00
2024-02-05T22:18:14.218Z,100.00
2024-02-05T22:20:42.361Z,100.00
2024-02-05T22:23:10.393Z,100.00
2024-02-05T22:25:38.528Z,100.00
2024-02-05T22:28:06.789Z,100.00
2024-02-05T22:30:36.029Z,100.00
2024-02-05T22:33:04.529Z,100.00
2024-02-05T22:35:32.710Z,100.00
2024-02-05T22:38:00.841Z,100.00
2024-02-05T22:40:28.864Z,100.00
2024-02-05T22:42:57.878Z,100.00
2024-02-05T22:45:26.017Z,100.00
2024-02-05T22:47:57.360Z,100.00
2024-02-05T22:50:25.824Z,100.00
2024-02-05T22:52:54.060Z,100.00
2024-02-05T22:55:21.972Z,100.00
2024-02-05T22:57:50.446Z,100.00
2024-02-05T23:00:27.688Z,100.00
2024-02-05T23:02:58.352Z,100.00
2024-02-05T23:05:26.955Z,100.00
2024-02-05T23:07:55.610Z,100.00
2024-02-05T23:10:24.339Z,100.00
2024-02-05T23:12:52.466Z,100.00
2024-02-05T23:15:20.616Z,100.00
2024-02-05T23:17:48.600Z,100.00
2024-02-05T23:20:18.292Z,100.00
2024-02-05T23:22:46.599Z,100.00
2024-02-05T23:25:15.770Z,100.00
2024-02-05T23:27:44.091Z,100.00
2024-02-05T23:30:13.889Z,100.00
2024-02-05T23:32:42.470Z,100.00
2024-02-05T23:35:11.071Z,100.00
2024-02-05T23:37:40.373Z,100.00
2024-02-05T23:40:09.229Z,100.00
2024-02-05T23:42:39.586Z,100.00
2024-02-05T23:45:08.438Z,100.00
2024-02-05T23:47:36.266Z,100.00
2024-02-05T23:50:04.435Z,100.00
2024-02-05T23:52:32.684Z,100.00
2024-02-05T23:55:02.340Z,100.00
2024-02-05T23:57:30.272Z,100.00
2024-02-05T23:59:58.327Z,100.00
